createdAt,value
2018-02-27T00:00:13.435Z,6.90
2018-02-27T00:01:13.453Z,7.30
2018-02-27T00:02:13.440Z,7.20
2018-02-27T00:03:13.454Z,7.30
2018-02-27T00:04:13.457Z,7.30
2018-02-27T00:05:13.454Z,6.60
2018-02-27T00:06:13.460Z,6.60
2018-02-27T00:07:13.466Z,7.80
2018-02-27T00:08:13.462Z,7.60
2018-02-27T00:09:13.469Z,7.50
2018-02-27T00:10:13.493Z,7.80
2018-02-27T00:11:13.479Z,7.70
2018-02-27T00:12:13.490Z,7.30
2018-02-27T00:13:13.481Z,7.70
2018-02-27T00:14:13.487Z,6.70
2018-02-27T00:15:13.489Z,7.10
2018-02-27T00:16:13.495Z,7.30
2018-02-27T00:17:13.513Z,7.70
2018-02-27T00:18:13.495Z,7.20
2018-02-27T00:19:13.510Z,7.30
2018-02-27T00:20:13.507Z,8.00
2018-02-27T00:21:13.515Z,7.50
2018-02-27T00:22:13.509Z,7.30
2018-02-27T00:23:13.518Z,7.00
2018-02-27T00:24:13.522Z,6.80
2018-02-27T00:25:13.525Z,7.30
2018-02-27T00:26:13.529Z,7.50
2018-02-27T00:27:13.531Z,7.00
2018-02-27T00:28:13.544Z,7.10
2018-02-27T00:29:13.538Z,7.10
2018-02-27T00:30:13.550Z,7.40
2018-02-27T00:31:13.535Z,6.90
2018-02-27T00:32:13.543Z,7.30
2018-02-27T00:33:13.564Z,7.00
2018-02-27T00:34:13.548Z,7.50
2018-02-27T00:35:13.560Z,7.70
2018-02-27T00:36:13.558Z,7.60
2018-02-27T00:37:13.566Z,7.80
2018-02-27T00:38:13.571Z,7.50
2018-02-27T00:39:13.570Z,7.90
2018-02-27T00:40:13.566Z,7.20
2018-02-27T00:41:13.583Z,7.40
2018-02-27T00:42:13.582Z,7.80
2018-02-27T00:43:13.592Z,7.80
2018-02-27T00:44:13.590Z,7.70
2018-02-27T00:45:13.584Z,8.30
2018-02-27T00:46:13.604Z,7.20
2018-02-27T00:47:13.590Z,7.00
2018-02-27T00:48:13.605Z,7.40
2018-02-27T00:49:13.600Z,7.50
2018-02-27T00:50:13.604Z,7.80
2018-02-27T00:51:13.618Z,7.60
2018-02-27T00:52:13.618Z,7.60
2018-02-27T00:53:13.626Z,7.80
2018-02-27T00:54:13.617Z,7.50
2018-02-27T00:55:13.623Z,7.10
2018-02-27T00:56:13.618Z,7.70
2018-02-27T00:57:13.631Z,7.20
2018-02-27T00:58:13.627Z,7.30
2018-02-27T00:59:13.639Z,7.50
2018-02-27T01:00:13.647Z,7.30
2018-02-27T01:01:13.640Z,7.30
2018-02-27T01:02:13.654Z,7.60
2018-02-27T01:03:13.649Z,7.70
2018-02-27T01:04:13.661Z,8.00
2018-02-27T01:05:13.656Z,7.50
2018-02-27T01:06:13.657Z,8.00
2018-02-27T01:07:13.665Z,7.90
2018-02-27T01:08:13.668Z,7.40
2018-02-27T01:09:13.672Z,7.80
2018-02-27T01:10:13.674Z,7.40
2018-02-27T01:11:13.686Z,7.70
2018-02-27T01:12:13.676Z,7.50
2018-02-27T01:13:13.695Z,7.60
2018-02-27T01:14:13.679Z,7.00
2018-02-27T01:15:13.697Z,7.40
2018-02-27T01:16:13.688Z,7.80
2018-02-27T01:17:13.699Z,7.40
2018-02-27T01:18:13.696Z,7.30
2018-02-27T01:19:13.700Z,7.50
2018-02-27T01:20:13.717Z,7.40
2018-02-27T01:21:13.710Z,7.50
2018-02-27T01:22:13.736Z,7.40
2018-02-27T01:23:13.711Z,7.40
2018-02-27T01:24:13.719Z,7.30
2018-02-27T01:25:13.727Z,7.50
2018-02-27T01:26:13.723Z,7.50
2018-02-27T01:27:13.723Z,7.70
2018-02-27T01:28:13.741Z,7.20
2018-02-27T01:29:13.724Z,7.80
2018-02-27T01:30:13.740Z,7.10
2018-02-27T01:31:13.732Z,7.20
2018-02-27T01:32:13.741Z,7.70
2018-02-27T01:33:13.742Z,8.70
2018-02-27T01:34:13.754Z,8.00
2018-02-27T01:35:13.757Z,7.70
2018-02-27T01:36:13.766Z,7.90
2018-02-27T01:37:13.760Z,7.70
2018-02-27T01:38:13.767Z,7.30
2018-02-27T01:39:13.776Z,7.80
2018-02-27T01:40:13.769Z,7.20
2018-02-27T01:41:13.772Z,7.10
2018-02-27T01:42:13.770Z,8.00
2018-02-27T01:43:13.787Z,8.00
2018-02-27T01:44:13.780Z,7.70
2018-02-27T01:45:13.781Z,7.60
2018-02-27T01:46:13.790Z,8.10
2018-02-27T01:47:13.791Z,8.20
2018-02-27T01:48:13.793Z,8.20
2018-02-27T01:49:13.807Z,8.30
2018-02-27T01:50:13.801Z,8.20
2018-02-27T01:51:13.807Z,7.70
2018-02-27T01:52:13.810Z,8.30
2018-02-27T01:53:13.801Z,7.90
2018-02-27T01:54:13.815Z,8.00
2018-02-27T01:55:13.807Z,7.90
2018-02-27T01:56:13.822Z,8.60
2018-02-27T01:57:13.817Z,7.70
2018-02-27T01:58:13.826Z,8.40
2018-02-27T01:59:13.823Z,7.70
2018-02-27T02:00:13.836Z,7.90
2018-02-27T02:01:13.822Z,8.50
2018-02-27T02:02:13.836Z,8.30
2018-02-27T02:03:13.845Z,8.20
2018-02-27T02:04:13.841Z,7.90
2018-02-27T02:05:13.855Z,8.50
2018-02-27T02:06:13.847Z,7.60
2018-02-27T02:07:13.853Z,8.30
2018-02-27T02:08:13.850Z,8.30
2018-02-27T02:09:13.855Z,8.60
2018-02-27T02:10:13.857Z,8.40
2018-02-27T02:11:13.863Z,7.90
2018-02-27T02:12:13.857Z,8.20
2018-02-27T02:13:13.870Z,8.80
2018-02-27T02:14:13.865Z,8.00
2018-02-27T02:15:13.878Z,8.70
2018-02-27T02:16:13.874Z,8.80
2018-02-27T02:17:13.878Z,8.80
2018-02-27T02:18:13.879Z,8.00
2018-02-27T02:19:13.882Z,9.00
2018-02-27T02:20:13.880Z,8.40
2018-02-27T02:21:13.894Z,9.40
2018-02-27T02:22:13.899Z,8.90
2018-02-27T02:23:13.898Z,9.60
2018-02-27T02:24:13.908Z,8.90
2018-02-27T02:25:13.902Z,8.80
2018-02-27T02:26:13.911Z,8.90
2018-02-27T02:27:13.912Z,8.90
2018-02-27T02:28:13.912Z,9.30
2018-02-27T02:29:13.912Z,8.80
2018-02-27T02:30:13.919Z,8.20
2018-02-27T02:31:13.920Z,10.30
2018-02-27T02:32:13.930Z,9.20
2018-02-27T02:33:13.925Z,9.60
2018-02-27T02:34:13.939Z,9.20
2018-02-27T02:35:13.924Z,9.90
2018-02-27T02:36:13.935Z,8.90
2018-02-27T02:37:13.944Z,9.50
2018-02-27T02:38:13.949Z,8.60
2018-02-27T02:39:13.958Z,9.40
2018-02-27T02:40:13.957Z,8.90
2018-02-27T02:41:13.955Z,9.10
2018-02-27T02:42:13.954Z,8.70
2018-02-27T02:43:13.959Z,9.20
2018-02-27T02:44:13.956Z,9.40
2018-02-27T02:45:13.969Z,9.20
2018-02-27T02:46:13.966Z,10.10
2018-02-27T02:47:13.982Z,9.20
2018-02-27T02:48:13.968Z,8.80
2018-02-27T02:49:13.973Z,9.30
2018-02-27T02:50:13.983Z,9.70
2018-02-27T02:51:13.986Z,9.50
2018-02-27T02:52:13.978Z,9.70
2018-02-27T02:53:13.995Z,10.10
2018-02-27T02:54:13.987Z,9.00
2018-02-27T02:55:13.994Z,9.50
2018-02-27T02:56:13.996Z,9.50
2018-02-27T02:57:13.994Z,9.30
2018-02-27T02:58:13.995Z,9.50
2018-02-27T02:59:14.000Z,9.50
2018-02-27T03:00:13.996Z,9.50
2018-02-27T03:01:14.010Z,10.20
2018-02-27T03:02:14.007Z,9.60
2018-02-27T03:03:14.022Z,9.80
2018-02-27T03:04:14.014Z,10.00
2018-02-27T03:05:14.021Z,8.90
2018-02-27T03:06:14.038Z,10.20
2018-02-27T03:07:14.026Z,9.50
2018-02-27T03:08:14.032Z,9.50
2018-02-27T03:09:14.030Z,9.30
2018-02-27T03:10:14.043Z,9.80
2018-02-27T03:11:14.045Z,9.50
2018-02-27T03:12:14.046Z,10.10
2018-02-27T03:13:14.045Z,9.70
2018-02-27T03:14:14.056Z,9.50
2018-02-27T03:15:14.045Z,9.90
2018-02-27T03:16:14.053Z,9.90
2018-02-27T03:17:14.054Z,8.70
2018-02-27T03:18:14.065Z,9.30
2018-02-27T03:19:14.057Z,9.50
2018-02-27T03:20:14.067Z,9.20
2018-02-27T03:21:14.058Z,9.50
2018-02-27T03:22:14.078Z,9.80
2018-02-27T03:23:14.067Z,9.20
2018-02-27T03:24:14.075Z,10.10
2018-02-27T03:25:14.076Z,9.80
2018-02-27T03:26:14.108Z,9.20
2018-02-27T03:27:14.079Z,9.60
2018-02-27T03:28:14.087Z,10.00
2018-02-27T03:29:14.086Z,10.50
2018-02-27T03:30:14.090Z,9.50
2018-02-27T03:31:14.092Z,9.60
2018-02-27T03:32:14.111Z,9.60
2018-02-27T03:33:14.094Z,10.10
2018-02-27T03:34:14.111Z,10.10
2018-02-27T03:35:14.108Z,9.50
2018-02-27T03:36:14.104Z,9.40
2018-02-27T03:37:14.106Z,9.30
2018-02-27T03:38:14.117Z,9.70
2018-02-27T03:39:14.124Z,9.40
2018-02-27T03:40:14.121Z,9.80
2018-02-27T03:41:14.132Z,9.80
2018-02-27T03:42:14.132Z,9.10
2018-02-27T03:43:14.128Z,9.50
2018-02-27T03:44:14.125Z,8.90
2018-02-27T03:45:14.137Z,9.50
2018-02-27T03:46:14.131Z,10.30
2018-02-27T03:47:14.144Z,9.20
2018-02-27T03:48:14.144Z,9.50
2018-02-27T03:49:14.144Z,10.00
2018-02-27T03:50:14.146Z,9.80
2018-02-27T03:51:14.151Z,9.70
2018-02-27T03:52:14.167Z,10.20
2018-02-27T03:53:14.166Z,9.60
2018-02-27T03:54:14.152Z,9.80
2018-02-27T03:55:14.172Z,9.60
2018-02-27T03:56:14.165Z,10.50
2018-02-27T03:57:14.166Z,9.20
2018-02-27T03:58:14.173Z,10.10
2018-02-27T03:59:14.172Z,10.00
2018-02-27T04:00:14.174Z,9.80
2018-02-27T04:01:14.184Z,10.20
2018-02-27T04:02:14.182Z,10.30
2018-02-27T04:03:14.188Z,9.70
2018-02-27T04:04:14.183Z,9.70
2018-02-27T04:05:14.192Z,8.70
2018-02-27T04:06:14.188Z,10.30
2018-02-27T04:07:14.192Z,9.90
2018-02-27T04:08:14.229Z,9.30
2018-02-27T04:09:14.211Z,9.90
2018-02-27T04:10:14.197Z,9.30
2018-02-27T04:11:14.213Z,10.00
2018-02-27T04:12:14.206Z,9.50
2018-02-27T04:13:14.210Z,9.60
2018-02-27T04:14:14.216Z,9.20
2018-02-27T04:15:14.221Z,9.40
2018-02-27T04:16:14.209Z,9.40
2018-02-27T04:17:14.223Z,8.90
2018-02-27T04:18:14.216Z,9.00
2018-02-27T04:19:14.236Z,9.80
2018-02-27T04:20:14.232Z,10.40
2018-02-27T04:21:14.231Z,9.80
2018-02-27T04:22:14.235Z,10.10
2018-02-27T04:23:14.242Z,9.30
2018-02-27T04:24:14.233Z,9.10
2018-02-27T04:25:14.250Z,9.00
2018-02-27T04:26:14.239Z,9.60
2018-02-27T04:27:14.250Z,9.50
2018-02-27T04:28:14.246Z,10.00
2018-02-27T04:29:14.250Z,9.60
2018-02-27T04:30:14.260Z,9.40
2018-02-27T04:31:14.262Z,9.60
2018-02-27T04:32:14.254Z,9.20
2018-02-27T04:33:14.267Z,9.60
2018-02-27T04:34:14.265Z,10.30
2018-02-27T04:35:14.269Z,9.80
2018-02-27T04:36:14.267Z,9.10
2018-02-27T04:37:14.270Z,9.40
2018-02-27T04:38:14.274Z,9.70
2018-02-27T04:39:14.283Z,9.50
2018-02-27T04:40:14.275Z,9.00
2018-02-27T04:41:14.294Z,9.20
2018-02-27T04:42:14.288Z,9.60
2018-02-27T04:43:14.292Z,8.20
2018-02-27T04:44:14.287Z,9.80
2018-02-27T04:45:14.301Z,8.70
2018-02-27T04:46:14.302Z,8.60
2018-02-27T04:47:14.300Z,9.00
2018-02-27T04:48:14.302Z,8.70
2018-02-27T04:49:14.309Z,8.70
2018-02-27T04:50:14.310Z,9.40
2018-02-27T04:51:14.317Z,8.90
2018-02-27T04:52:14.317Z,8.90
2018-02-27T04:53:14.306Z,9.10
2018-02-27T04:54:14.323Z,9.40
2018-02-27T04:55:14.327Z,8.80
2018-02-27T04:56:14.322Z,8.40
2018-02-27T04:57:14.325Z,8.30
2018-02-27T04:58:14.323Z,8.60
2018-02-27T04:59:14.329Z,10.10
2018-02-27T05:00:14.344Z,9.10
2018-02-27T05:01:14.324Z,9.50
2018-02-27T05:02:14.343Z,8.80
2018-02-27T05:03:14.336Z,9.40
2018-02-27T05:04:14.340Z,9.40
2018-02-27T05:05:14.336Z,10.10
2018-02-27T05:06:14.350Z,9.20
2018-02-27T05:07:14.343Z,9.10
2018-02-27T05:08:14.351Z,9.50
2018-02-27T05:09:14.343Z,9.40
2018-02-27T05:10:14.359Z,10.40
2018-02-27T05:11:14.357Z,9.20
2018-02-27T05:12:14.360Z,10.00
2018-02-27T05:13:14.380Z,9.30
2018-02-27T05:14:14.363Z,9.50
2018-02-27T05:15:14.364Z,8.70
2018-02-27T05:16:14.372Z,9.30
2018-02-27T05:17:14.371Z,9.30
2018-02-27T05:18:14.384Z,9.30
2018-02-27T05:19:14.372Z,9.60
2018-02-27T05:20:14.382Z,9.70
2018-02-27T05:21:14.388Z,8.90
2018-02-27T05:22:14.375Z,10.00
2018-02-27T05:23:14.389Z,9.40
2018-02-27T05:24:14.387Z,9.60
2018-02-27T05:25:14.389Z,9.80
2018-02-27T05:26:14.395Z,9.50
2018-02-27T05:27:14.391Z,10.20
2018-02-27T05:28:14.389Z,9.80
2018-02-27T05:29:14.399Z,10.00
2018-02-27T05:30:14.394Z,10.10
2018-02-27T05:31:14.407Z,9.40
2018-02-27T05:32:14.405Z,9.90
2018-02-27T05:33:14.409Z,9.50
2018-02-27T05:34:14.408Z,9.30
2018-02-27T05:35:14.419Z,9.80
2018-02-27T05:36:14.417Z,9.90
2018-02-27T05:37:14.421Z,9.00
2018-02-27T05:38:14.427Z,9.70
2018-02-27T05:39:14.423Z,9.90
2018-02-27T05:40:14.428Z,9.90
2018-02-27T05:41:14.452Z,10.00
2018-02-27T05:42:14.426Z,9.80
2018-02-27T05:43:14.440Z,9.80
2018-02-27T05:44:14.440Z,10.10
2018-02-27T05:45:14.440Z,9.90
2018-02-27T05:46:14.447Z,9.80
2018-02-27T05:47:14.444Z,10.00
2018-02-27T05:48:14.441Z,9.80
2018-02-27T05:49:14.456Z,9.50
2018-02-27T05:50:14.447Z,9.50
2018-02-27T05:51:14.457Z,9.90
2018-02-27T05:52:14.456Z,9.90
2018-02-27T05:53:14.451Z,9.60
2018-02-27T05:54:14.462Z,10.50
2018-02-27T05:55:14.455Z,10.00
2018-02-27T05:56:14.466Z,9.50
2018-02-27T05:57:14.464Z,9.90
2018-02-27T05:58:14.469Z,10.30
2018-02-27T05:59:14.475Z,10.20
2018-02-27T06:00:14.485Z,10.70
2018-02-27T06:01:14.483Z,10.20
2018-02-27T06:02:14.484Z,9.90
2018-02-27T06:03:14.477Z,10.00
2018-02-27T06:04:14.490Z,10.50
2018-02-27T06:05:14.484Z,10.10
2018-02-27T06:06:14.489Z,10.40
2018-02-27T06:07:14.488Z,9.40
2018-02-27T06:08:14.520Z,10.80
2018-02-27T06:09:14.490Z,10.60
2018-02-27T06:10:14.503Z,9.60
2018-02-27T06:11:14.520Z,9.70
2018-02-27T06:12:14.510Z,10.20
2018-02-27T06:13:14.505Z,10.30
2018-02-27T06:14:14.512Z,9.50
2018-02-27T06:15:14.512Z,10.60
2018-02-27T06:16:14.521Z,10.40
2018-02-27T06:17:14.517Z,10.60
2018-02-27T06:18:14.531Z,10.00
2018-02-27T06:19:14.519Z,10.90
2018-02-27T06:20:14.532Z,9.70
2018-02-27T06:21:14.535Z,10.30
2018-02-27T06:22:14.539Z,10.10
2018-02-27T06:23:14.538Z,9.70
2018-02-27T06:24:14.541Z,9.80
2018-02-27T06:25:14.538Z,10.20
2018-02-27T06:26:14.549Z,10.60
2018-02-27T06:27:14.539Z,11.10
2018-02-27T06:28:14.548Z,10.90
2018-02-27T06:29:14.549Z,10.00
2018-02-27T06:30:14.552Z,10.20
2018-02-27T06:31:14.572Z,10.10
2018-02-27T06:32:14.556Z,10.60
2018-02-27T06:33:14.554Z,10.50
2018-02-27T06:34:14.569Z,10.30
2018-02-27T06:35:14.564Z,10.40
2018-02-27T06:36:14.568Z,9.90
2018-02-27T06:37:14.575Z,10.40
2018-02-27T06:38:14.572Z,9.50
2018-02-27T06:39:14.572Z,10.00
2018-02-27T06:40:14.584Z,10.10
2018-02-27T06:41:14.573Z,10.60
2018-02-27T06:42:14.588Z,10.60
2018-02-27T06:43:14.586Z,10.80
2018-02-27T06:44:14.590Z,11.20
2018-02-27T06:45:14.592Z,10.10
2018-02-27T06:46:14.593Z,10.70
2018-02-27T06:47:14.634Z,10.60
2018-02-27T06:48:14.602Z,10.10
2018-02-27T06:49:14.596Z,10.60
2018-02-27T06:50:14.616Z,10.60
2018-02-27T06:51:14.615Z,10.30
2018-02-27T06:52:14.612Z,10.90
2018-02-27T06:53:14.619Z,10.90
2018-02-27T06:54:14.614Z,10.40
2018-02-27T06:55:14.673Z,11.10
2018-02-27T06:56:14.623Z,10.10
2018-02-27T06:57:14.618Z,10.00
2018-02-27T06:58:14.648Z,10.40
2018-02-27T06:59:14.630Z,10.70
2018-02-27T07:00:14.637Z,10.40
2018-02-27T07:01:14.640Z,10.10
2018-02-27T07:02:14.638Z,10.80
2018-02-27T07:03:14.640Z,11.00
2018-02-27T07:04:14.654Z,10.00
2018-02-27T07:05:14.646Z,9.70
2018-02-27T07:06:14.650Z,9.70
2018-02-27T07:07:14.661Z,9.80
2018-02-27T07:08:14.653Z,10.40
2018-02-27T07:09:14.675Z,9.50
2018-02-27T07:10:14.674Z,10.20
2018-02-27T07:11:14.672Z,10.30
2018-02-27T07:12:14.668Z,10.10
2018-02-27T07:13:14.674Z,9.40
2018-02-27T07:14:14.679Z,10.10
2018-02-27T07:15:14.684Z,9.80
2018-02-27T07:16:14.693Z,9.30
2018-02-27T07:17:14.700Z,9.40
2018-02-27T07:18:14.691Z,10.40
2018-02-27T07:19:14.692Z,9.60
2018-02-27T07:20:14.712Z,10.30
2018-02-27T07:21:14.694Z,9.30
2018-02-27T07:22:14.707Z,10.50
2018-02-27T07:23:14.721Z,10.00
2018-02-27T07:24:14.711Z,10.60
2018-02-27T07:25:14.728Z,10.30
2018-02-27T07:26:14.730Z,9.80
2018-02-27T07:27:14.724Z,10.70
2018-02-27T07:28:14.734Z,9.90
2018-02-27T07:29:14.733Z,11.00
2018-02-27T07:30:14.747Z,11.00
2018-02-27T07:31:14.739Z,9.90
2018-02-27T07:32:14.752Z,10.80
2018-02-27T07:33:14.760Z,10.10
2018-02-27T07:34:14.753Z,11.00
2018-02-27T07:35:14.766Z,10.60
2018-02-27T07:36:14.775Z,11.40
2018-02-27T07:37:14.763Z,11.00
2018-02-27T07:38:14.772Z,9.60
2018-02-27T07:39:14.773Z,9.40
2018-02-27T07:40:14.773Z,8.80
2018-02-27T07:41:14.793Z,9.50
2018-02-27T07:42:14.782Z,10.50
2018-02-27T07:43:14.808Z,9.20
2018-02-27T07:44:14.809Z,9.40
2018-02-27T07:45:14.797Z,10.10
2018-02-27T07:46:14.813Z,9.80
2018-02-27T07:47:14.820Z,10.20
2018-02-27T07:48:14.815Z,10.50
2018-02-27T07:49:14.818Z,10.20
2018-02-27T07:50:14.836Z,9.80
2018-02-27T07:51:14.832Z,10.00
2018-02-27T07:52:14.831Z,9.00
2018-02-27T07:53:14.843Z,10.10
2018-02-27T07:54:14.838Z,9.10
2018-02-27T07:55:14.859Z,8.50
2018-02-27T07:56:14.866Z,9.50
2018-02-27T07:57:14.870Z,8.50
2018-02-27T07:58:14.870Z,9.10
2018-02-27T07:59:14.869Z,9.20
2018-02-27T08:00:14.883Z,9.70
2018-02-27T08:01:14.890Z,9.00
2018-02-27T08:02:14.882Z,9.00
2018-02-27T08:03:14.895Z,8.70
2018-02-27T08:04:14.911Z,9.40
2018-02-27T08:05:14.950Z,9.00
2018-02-27T08:06:14.919Z,8.20
2018-02-27T08:07:14.916Z,8.50
2018-02-27T08:08:14.919Z,8.30
2018-02-27T08:09:14.931Z,8.10
2018-02-27T08:10:14.928Z,8.00
2018-02-27T08:11:14.950Z,8.10
2018-02-27T08:12:14.938Z,8.40
2018-02-27T08:13:14.951Z,8.50
2018-02-27T08:14:14.957Z,8.40
2018-02-27T08:15:14.954Z,8.20
2018-02-27T08:16:14.991Z,8.00
2018-02-27T08:17:14.975Z,8.30
2018-02-27T08:18:14.982Z,8.80
2018-02-27T08:19:14.983Z,8.70
2018-02-27T08:20:14.990Z,7.30
2018-02-27T08:21:14.991Z,8.60
2018-02-27T08:22:14.990Z,8.10
2018-02-27T08:23:15.006Z,9.20
2018-02-27T08:24:15.008Z,8.70
2018-02-27T08:25:15.023Z,8.70
2018-02-27T08:26:15.012Z,8.80
2018-02-27T08:27:15.023Z,8.60
2018-02-27T08:28:15.032Z,8.60
2018-02-27T08:29:15.024Z,8.30
2018-02-27T08:30:15.045Z,7.40
2018-02-27T08:31:15.041Z,7.30
2018-02-27T08:32:15.049Z,8.10
2018-02-27T08:33:15.052Z,7.90
2018-02-27T08:34:15.084Z,8.20
2018-02-27T08:35:15.068Z,7.40
2018-02-27T08:36:15.065Z,6.80
2018-02-27T08:37:15.068Z,7.60
2018-02-27T08:38:15.083Z,6.60
2018-02-27T08:39:15.088Z,7.40
2018-02-27T08:40:15.084Z,7.30
2018-02-27T08:41:15.098Z,7.10
2018-02-27T08:42:15.100Z,7.40
2018-02-27T08:43:15.122Z,7.60
2018-02-27T08:44:15.184Z,7.70
2018-02-27T08:45:15.114Z,7.10
2018-02-27T08:46:15.129Z,7.00
2018-02-27T08:47:15.140Z,7.90
2018-02-27T08:48:15.143Z,7.40
2018-02-27T08:49:15.157Z,7.80
2018-02-27T08:50:15.147Z,7.90
2018-02-27T08:51:15.179Z,7.10
2018-02-27T08:52:15.169Z,7.40
2018-02-27T08:53:15.174Z,6.00
2018-02-27T08:54:15.193Z,5.90
2018-02-27T08:55:15.180Z,6.00
2018-02-27T08:56:15.194Z,5.20
2018-02-27T08:57:15.202Z,6.50
2018-02-27T08:58:15.213Z,5.40
2018-02-27T08:59:15.218Z,6.20
2018-02-27T09:00:15.224Z,6.20
2018-02-27T09:01:15.220Z,6.60
2018-02-27T09:02:15.236Z,7.20
2018-02-27T09:03:15.239Z,7.10
2018-02-27T09:04:15.251Z,7.70
2018-02-27T09:05:15.261Z,7.00
2018-02-27T09:06:15.270Z,8.00
2018-02-27T09:07:15.267Z,7.70
2018-02-27T09:08:15.278Z,6.80
2018-02-27T09:09:15.286Z,7.20
2018-02-27T09:10:15.290Z,7.00
2018-02-27T09:11:15.297Z,7.70
2018-02-27T09:12:15.305Z,7.60
2018-02-27T09:13:15.330Z,7.90
2018-02-27T09:14:15.326Z,7.20
2018-02-27T09:15:15.343Z,7.80
2018-02-27T09:16:15.333Z,7.40
2018-02-27T09:17:15.346Z,7.20
2018-02-27T09:18:15.349Z,6.50
2018-02-27T09:19:15.426Z,6.20
2018-02-27T09:20:15.372Z,6.30
2018-02-27T09:21:15.376Z,7.00
2018-02-27T09:22:15.382Z,6.60
2018-02-27T09:23:15.393Z,7.40
2018-02-27T09:24:15.406Z,6.80
2018-02-27T09:25:15.416Z,7.10
2018-02-27T09:26:15.423Z,6.40
2018-02-27T09:27:15.416Z,7.00
2018-02-27T09:28:15.430Z,6.70
2018-02-27T09:29:15.441Z,6.40
2018-02-27T09:30:15.439Z,7.10
2018-02-27T09:31:15.461Z,6.50
2018-02-27T09:32:15.467Z,7.20
2018-02-27T09:33:15.466Z,6.90
2018-02-27T09:34:15.487Z,7.50
2018-02-27T09:35:15.486Z,7.00
2018-02-27T09:36:15.498Z,7.70
2018-02-27T09:37:15.511Z,7.50
2018-02-27T09:38:15.588Z,7.60
2018-02-27T09:39:15.529Z,7.10
2018-02-27T09:40:15.545Z,7.50
2018-02-27T09:41:15.543Z,6.90
2018-02-27T09:42:15.550Z,6.90
2018-02-27T09:43:15.563Z,6.70
2018-02-27T09:44:15.564Z,6.50
2018-02-27T09:45:15.577Z,6.70
2018-02-27T09:46:15.585Z,8.00
2018-02-27T09:47:15.601Z,7.40
2018-02-27T09:48:15.612Z,6.70
2018-02-27T09:49:15.609Z,6.70
2018-02-27T09:50:15.628Z,6.70
2018-02-27T09:51:15.625Z,6.20
2018-02-27T09:52:15.634Z,6.90
2018-02-27T09:53:15.648Z,6.90
2018-02-27T09:54:15.656Z,7.30
2018-02-27T09:55:15.660Z,7.20
2018-02-27T09:56:15.676Z,6.50
2018-02-27T09:57:15.699Z,7.10
2018-02-27T09:58:15.694Z,7.10
2018-02-27T09:59:15.702Z,7.50
2018-02-27T10:00:15.707Z,7.70
2018-02-27T10:01:15.705Z,6.40
2018-02-27T10:02:15.734Z,7.30
2018-02-27T10:03:15.733Z,7.10
2018-02-27T10:04:15.735Z,6.80
2018-02-27T10:05:15.742Z,6.60
2018-02-27T10:06:15.764Z,7.10
2018-02-27T10:07:15.764Z,7.40
2018-02-27T10:08:15.770Z,6.70
2018-02-27T10:09:15.775Z,7.50
2018-02-27T10:10:15.795Z,8.00
2018-02-27T10:11:15.798Z,7.30
2018-02-27T10:12:15.802Z,7.50
2018-02-27T10:13:15.815Z,7.20
2018-02-27T10:14:15.824Z,7.20
2018-02-27T10:15:15.830Z,7.70
2018-02-27T10:16:15.839Z,7.90
2018-02-27T10:17:15.835Z,7.50
2018-02-27T10:18:15.851Z,7.20
2018-02-27T10:19:15.853Z,7.20
2018-02-27T10:20:15.879Z,7.30
2018-02-27T10:21:15.878Z,7.20
2018-02-27T10:22:15.906Z,7.00
2018-02-27T10:23:15.890Z,7.60
2018-02-27T10:24:15.899Z,7.10
2018-02-27T10:25:15.908Z,7.50
2018-02-27T10:26:15.916Z,7.00
2018-02-27T10:27:15.921Z,7.10
2018-02-27T10:28:15.929Z,7.20
2018-02-27T10:29:15.952Z,7.10
2018-02-27T10:30:15.954Z,6.90
2018-02-27T10:31:15.969Z,7.90
2018-02-27T10:32:15.972Z,7.70
2018-02-27T10:33:15.983Z,7.50
2018-02-27T10:34:15.990Z,6.90
2018-02-27T10:35:15.998Z,6.90
2018-02-27T10:36:15.990Z,6.70
2018-02-27T10:37:16.008Z,7.20
2018-02-27T10:38:16.013Z,7.20
2018-02-27T10:39:16.021Z,7.60
2018-02-27T10:40:16.029Z,7.40
2018-02-27T10:41:16.042Z,7.40
2018-02-27T10:42:16.053Z,7.30
2018-02-27T10:43:16.060Z,6.80
2018-02-27T10:44:16.062Z,7.50
2018-02-27T10:45:16.075Z,7.60
2018-02-27T10:46:16.077Z,6.80
2018-02-27T10:47:16.100Z,6.80
2018-02-27T10:48:16.106Z,6.90
2018-02-27T10:49:16.105Z,6.30
2018-02-27T10:50:16.122Z,6.70
2018-02-27T10:51:16.124Z,6.20
2018-02-27T10:52:16.130Z,6.50
2018-02-27T10:53:16.147Z,6.10
2018-02-27T10:54:16.135Z,6.20
2018-02-27T10:55:16.155Z,5.20
2018-02-27T10:56:16.158Z,5.40
2018-02-27T10:57:16.226Z,4.90
2018-02-27T10:58:16.182Z,4.70
2018-02-27T10:59:16.182Z,5.00
2018-02-27T11:00:16.192Z,5.10
2018-02-27T11:01:16.211Z,4.30
2018-02-27T11:02:16.208Z,4.00
2018-02-27T11:03:16.222Z,3.80
2018-02-27T11:04:16.228Z,4.30
2018-02-27T11:05:16.233Z,4.00
2018-02-27T11:06:16.245Z,5.10
2018-02-27T11:07:16.241Z,4.30
2018-02-27T11:08:16.249Z,4.70
2018-02-27T11:09:16.262Z,5.20
2018-02-27T11:10:16.268Z,5.00
2018-02-27T11:11:16.277Z,5.10
2018-02-27T11:12:16.295Z,4.90
2018-02-27T11:13:16.293Z,4.80
2018-02-27T11:14:16.314Z,4.60
2018-02-27T11:15:16.309Z,5.30
2018-02-27T11:16:16.320Z,4.90
2018-02-27T11:17:16.339Z,4.60
2018-02-27T11:18:16.338Z,4.80
2018-02-27T11:19:16.346Z,4.40
2018-02-27T11:20:16.353Z,4.00
2018-02-27T11:21:16.354Z,4.00
2018-02-27T11:22:16.373Z,3.50
2018-02-27T11:23:16.369Z,4.10
2018-02-27T11:24:16.387Z,4.30
2018-02-27T11:25:16.390Z,4.00
2018-02-27T11:26:16.399Z,4.30
2018-02-27T11:27:16.410Z,4.70
2018-02-27T11:28:16.424Z,3.80
2018-02-27T11:29:16.424Z,4.40
2018-02-27T11:30:16.461Z,4.10
2018-02-27T11:31:16.430Z,4.20
2018-02-27T11:32:16.451Z,4.30
2018-02-27T11:33:16.451Z,4.40
2018-02-27T11:34:16.459Z,4.30
2018-02-27T11:35:16.475Z,4.40
2018-02-27T11:36:16.543Z,4.20
2018-02-27T11:37:16.481Z,4.10
2018-02-27T11:38:16.512Z,4.00
2018-02-27T11:39:16.500Z,4.20
2018-02-27T11:40:16.509Z,3.70
2018-02-27T11:41:16.523Z,4.00
2018-02-27T11:42:16.538Z,4.00
2018-02-27T11:43:16.539Z,3.80
2018-02-27T11:44:16.546Z,3.60
2018-02-27T11:45:16.548Z,3.70
2018-02-27T11:46:16.557Z,4.10
2018-02-27T11:47:16.558Z,3.60
2018-02-27T11:48:16.566Z,3.60
2018-02-27T11:49:16.586Z,3.60
2018-02-27T11:50:16.604Z,4.00
2018-02-27T11:51:16.610Z,4.40
2018-02-27T11:52:16.608Z,3.70
2018-02-27T11:53:16.616Z,3.70
2018-02-27T11:54:16.623Z,3.90
2018-02-27T11:55:16.631Z,3.50
2018-02-27T11:56:16.637Z,3.50
2018-02-27T11:57:16.658Z,3.40
2018-02-27T11:58:16.660Z,3.40
2018-02-27T11:59:16.673Z,3.90
2018-02-27T12:00:16.678Z,3.90
2018-02-27T12:01:16.684Z,4.00
2018-02-27T12:02:16.699Z,4.00
2018-02-27T12:03:16.703Z,3.90
2018-02-27T12:04:16.715Z,4.00
2018-02-27T12:05:16.726Z,4.20
2018-02-27T12:06:16.739Z,3.60
2018-02-27T12:07:16.736Z,4.00
2018-02-27T12:08:16.764Z,4.00
2018-02-27T12:09:16.752Z,3.30
2018-02-27T12:10:16.749Z,2.70
2018-02-27T12:11:16.772Z,2.70
2018-02-27T12:12:16.771Z,3.60
2018-02-27T12:13:16.776Z,4.00
2018-02-27T12:14:16.796Z,4.10
2018-02-27T12:15:16.800Z,4.10
2018-02-27T12:16:16.813Z,4.10
2018-02-27T12:17:16.818Z,4.40
2018-02-27T12:18:16.823Z,4.50
2018-02-27T12:19:16.840Z,4.70
2018-02-27T12:20:16.864Z,4.40
2018-02-27T12:21:16.848Z,4.50
2018-02-27T12:22:16.862Z,4.30
2018-02-27T12:23:16.875Z,4.30
2018-02-27T12:24:16.873Z,3.80
2018-02-27T12:25:16.887Z,3.60
2018-02-27T12:26:16.893Z,4.40
2018-02-27T12:27:16.914Z,4.40
2018-02-27T12:28:16.922Z,4.60
2018-02-27T12:29:16.972Z,4.50
2018-02-27T12:30:16.932Z,4.50
2018-02-27T12:31:16.937Z,4.60
2018-02-27T12:32:16.958Z,4.30
2018-02-27T12:33:16.966Z,4.30
2018-02-27T12:34:16.971Z,4.60
2018-02-27T12:35:16.977Z,4.70
2018-02-27T12:36:17.005Z,4.90
2018-02-27T12:37:16.990Z,4.40
2018-02-27T12:38:17.006Z,4.70
2018-02-27T12:39:17.016Z,4.60
2018-02-27T12:40:17.019Z,4.40
2018-02-27T12:41:17.037Z,4.60
2018-02-27T12:42:17.034Z,4.10
2018-02-27T12:43:17.054Z,4.20
2018-02-27T12:44:17.057Z,4.50
2018-02-27T12:45:17.066Z,4.20
2018-02-27T12:46:17.076Z,4.70
2018-02-27T12:47:17.080Z,4.40
2018-02-27T12:48:17.088Z,4.60
2018-02-27T12:49:17.102Z,4.70
2018-02-27T12:50:17.108Z,5.20
2018-02-27T12:51:17.127Z,5.00
2018-02-27T12:52:17.141Z,6.60
2018-02-27T12:53:17.134Z,5.70
2018-02-27T12:54:17.155Z,5.10
2018-02-27T12:55:17.150Z,5.20
2018-02-27T12:56:17.167Z,4.60
2018-02-27T12:57:17.171Z,4.60
2018-02-27T12:58:17.246Z,5.00
2018-02-27T12:59:17.191Z,4.50
2018-02-27T13:00:17.201Z,4.90
2018-02-27T13:01:17.212Z,5.30
2018-02-27T13:02:17.215Z,5.10
2018-02-27T13:03:17.232Z,4.80
2018-02-27T13:04:17.229Z,4.80
2018-02-27T13:05:17.250Z,4.70
2018-02-27T13:06:17.249Z,4.70
2018-02-27T13:07:17.265Z,5.00
2018-02-27T13:08:17.275Z,4.70
2018-02-27T13:09:17.284Z,4.50
2018-02-27T13:10:17.297Z,4.40
2018-02-27T13:11:17.325Z,4.70
2018-02-27T13:12:17.303Z,4.40
2018-02-27T13:13:17.336Z,4.70
2018-02-27T13:14:17.334Z,4.80